createdAt,value
2023-05-05T00:01:56.728Z,32.17
2023-05-05T00:04:24.340Z,38.77
2023-05-05T00:06:51.758Z,26.77
2023-05-05T00:09:19.361Z,26.73
2023-05-05T00:11:46.930Z,27.03
2023-05-05T00:14:14.520Z,25.40
2023-05-05T00:16:42.470Z,28.27
2023-05-05T00:19:09.999Z,26.30
2023-05-05T00:21:37.375Z,26.23
2023-05-05T00:24:05.413Z,27.77
2023-05-05T00:26:32.877Z,25.77
2023-05-05T00:29:00.611Z,29.80
2023-05-05T00:31:28.290Z,25.03
2023-05-05T00:33:56.390Z,25.00
2023-05-05T00:36:24.028Z,25.63
2023-05-05T00:38:51.505Z,25.23
2023-05-05T00:41:18.999Z,25.57
2023-05-05T00:43:46.414Z,25.47
2023-05-05T00:46:28.971Z,37.57
2023-05-05T00:48:57.232Z,32.70
2023-05-05T00:51:25.276Z,30.47
2023-05-05T00:53:53.048Z,27.27
2023-05-05T00:56:27.389Z,28.37
2023-05-05T00:58:55.274Z,29.00
2023-05-05T01:01:23.146Z,28.20
2023-05-05T01:03:50.751Z,25.70
2023-05-05T01:06:46.701Z,27.17
2023-05-05T01:09:38.669Z,27.00
2023-05-05T01:12:23.880Z,23.27
2023-05-05T01:15:07.718Z,23.40
2023-05-05T01:17:46.894Z,23.33
2023-05-05T01:20:36.279Z,25.77
2023-05-05T01:23:08.510Z,28.27
2023-05-05T01:26:00.664Z,27.97
2023-05-05T01:29:08.080Z,25.67
2023-05-05T01:32:14.972Z,30.87
2023-05-05T01:35:04.673Z,30.90
2023-05-05T01:37:57.684Z,29.27
2023-05-05T01:40:32.147Z,29.27
2023-05-05T01:43:02.607Z,28.20
2023-05-05T01:45:36.146Z,25.37
2023-05-05T01:48:06.289Z,27.77
2023-05-05T01:50:35.389Z,28.40
2023-05-05T01:53:05.693Z,26.03
2023-05-05T01:55:34.241Z,23.60
2023-05-05T01:58:04.480Z,26.00
2023-05-05T02:00:33.842Z,25.33
2023-05-05T02:03:06.605Z,26.73
2023-05-05T02:05:36.793Z,23.83
2023-05-05T02:08:06.792Z,24.40
2023-05-05T02:10:35.464Z,24.40
2023-05-05T02:13:06.837Z,22.23
2023-05-05T02:15:38.663Z,26.60
2023-05-05T02:18:07.859Z,24.73
2023-05-05T02:20:38.728Z,23.67
2023-05-05T02:23:09.446Z,23.10
2023-05-05T02:25:42.755Z,26.13
2023-05-05T02:28:21.096Z,23.30
2023-05-05T02:30:58.584Z,23.07
2023-05-05T02:33:34.105Z,23.27
2023-05-05T02:36:22.807Z,30.03
2023-05-05T02:39:02.377Z,25.40
2023-05-05T02:41:36.943Z,24.33
2023-05-05T02:44:10.924Z,20.87
2023-05-05T02:46:39.658Z,22.00
2023-05-05T02:49:07.308Z,22.70
2023-05-05T02:51:35.228Z,25.00
2023-05-05T02:54:07.830Z,25.87
2023-05-05T02:56:44.696Z,30.10
2023-05-05T02:59:41.821Z,27.60
2023-05-05T03:02:38.964Z,36.07
2023-05-05T03:05:13.573Z,31.47
2023-05-05T03:08:11.280Z,29.50
2023-05-05T03:11:08.655Z,31.03
2023-05-05T03:13:43.271Z,47.90
2023-05-05T03:16:18.601Z,31.77
2023-05-05T03:18:49.251Z,39.27
2023-05-05T03:21:18.094Z,30.80
2023-05-05T03:23:46.047Z,25.97
2023-05-05T03:26:19.810Z,30.27
2023-05-05T03:28:47.760Z,45.40
2023-05-05T03:31:37.990Z,27.33
2023-05-05T03:34:06.369Z,23.17
2023-05-05T03:36:42.206Z,22.17
2023-05-05T03:39:12.588Z,22.73
2023-05-05T03:41:40.359Z,22.23
2023-05-05T03:44:09.536Z,28.87
2023-05-05T03:46:38.432Z,30.13
2023-05-05T03:49:09.838Z,28.30
2023-05-05T03:51:38.841Z,31.47
2023-05-05T03:54:09.099Z,26.60
2023-05-05T03:56:37.423Z,28.13
2023-05-05T03:59:04.992Z,29.97
2023-05-05T04:01:32.698Z,32.37
2023-05-05T04:04:02.243Z,32.00
2023-05-05T04:06:32.364Z,31.17
2023-05-05T04:09:00.212Z,26.07
2023-05-05T04:11:28.609Z,23.07
2023-05-05T04:13:59.182Z,22.90
2023-05-05T04:16:29.647Z,25.90
2023-05-05T04:18:58.532Z,24.40
2023-05-05T04:21:26.150Z,27.47
2023-05-05T04:23:53.789Z,22.97
2023-05-05T04:26:22.682Z,22.63
2023-05-05T04:28:50.903Z,19.73
2023-05-05T04:31:19.907Z,22.73
2023-05-05T04:33:48.223Z,24.53
2023-05-05T04:36:15.909Z,29.30
2023-05-05T04:38:43.443Z,23.30
2023-05-05T04:41:11.869Z,27.57
2023-05-05T04:43:41.476Z,30.13
2023-05-05T04:46:09.064Z,25.83
2023-05-05T04:48:38.576Z,22.83
2023-05-05T04:51:07.447Z,22.83
2023-05-05T04:53:36.171Z,48.20
2023-05-05T04:56:04.424Z,35.30
2023-05-05T04:58:31.949Z,30.47
2023-05-05T05:00:59.480Z,10.70
2023-05-05T05:03:27.238Z,10.37
2023-05-05T05:05:54.862Z,12.00
2023-05-05T05:08:22.655Z,11.87
2023-05-05T05:10:50.189Z,11.67
2023-05-05T05:13:17.794Z,7.90
2023-05-05T05:15:46.313Z,11.60
2023-05-05T05:18:13.995Z,13.33
2023-05-05T05:20:41.723Z,7.63
2023-05-05T05:23:09.673Z,10.53
2023-05-05T05:25:46.669Z,7.93
2023-05-05T05:28:16.619Z,12.37
2023-05-05T05:30:49.179Z,10.73
2023-05-05T05:33:20.164Z,9.40
2023-05-05T05:35:49.762Z,16.00
2023-05-05T05:38:19.804Z,7.40
2023-05-05T05:40:49.163Z,15.77
2023-05-05T05:43:20.054Z,7.80
2023-05-05T05:45:47.641Z,14.37
2023-05-05T05:48:15.960Z,13.27
2023-05-05T05:50:43.715Z,12.83
2023-05-05T05:53:11.301Z,7.63
2023-05-05T05:55:38.878Z,8.03
2023-05-05T05:58:06.559Z,7.77
2023-05-05T06:00:34.076Z,10.90
2023-05-05T06:03:07.499Z,10.60
2023-05-05T06:05:37.937Z,7.90
2023-05-05T06:08:05.898Z,6.07
2023-05-05T06:10:37.373Z,4.93
2023-05-05T06:13:10.657Z,6.90
2023-05-05T06:15:42.364Z,5.57
2023-05-05T06:18:12.192Z,5.63
2023-05-05T06:20:40.014Z,6.63
2023-05-05T06:23:08.028Z,12.83
2023-05-05T06:25:40.180Z,4.53
2023-05-05T06:28:07.732Z,7.57
2023-05-05T06:30:36.350Z,6.07
2023-05-05T06:33:03.961Z,12.00
2023-05-05T06:35:32.036Z,6.57
2023-05-05T06:37:59.519Z,4.83
2023-05-05T06:40:27.026Z,17.77
2023-05-05T06:42:54.634Z,6.10
2023-05-05T06:45:27.833Z,5.27
2023-05-05T06:47:55.711Z,7.23
2023-05-05T06:50:23.221Z,7.70
2023-05-05T06:52:50.779Z,7.33
2023-05-05T06:55:18.243Z,14.23
2023-05-05T06:57:45.728Z,7.00
2023-05-05T07:00:15.055Z,8.53
2023-05-05T07:02:42.740Z,10.47
2023-05-05T07:05:11.173Z,7.00
2023-05-05T07:07:39.032Z,6.90
2023-05-05T07:10:07.673Z,6.80
2023-05-05T07:12:36.014Z,7.03
2023-05-05T07:15:15.480Z,5.60
2023-05-05T07:17:51.295Z,6.40
2023-05-05T07:20:19.068Z,8.87
2023-05-05T07:22:46.616Z,5.97
2023-05-05T07:25:14.119Z,6.20
2023-05-05T07:27:41.784Z,7.90
2023-05-05T07:30:13.248Z,6.90
2023-05-05T07:32:43.070Z,6.90
2023-05-05T07:35:10.882Z,8.50
2023-05-05T07:37:38.432Z,6.30
2023-05-05T07:40:07.164Z,10.07
2023-05-05T07:42:34.792Z,17.30
2023-05-05T07:45:02.412Z,12.37
2023-05-05T07:47:30.264Z,6.10
2023-05-05T07:49:58.139Z,6.40
2023-05-05T07:52:43.687Z,9.03
2023-05-05T07:55:12.616Z,8.83
2023-05-05T07:57:40.159Z,5.80
2023-05-05T08:00:09.651Z,5.80
2023-05-05T08:02:42.307Z,4.80
2023-05-05T08:05:10.147Z,5.80
2023-05-05T08:07:41.336Z,5.30
2023-05-05T08:10:12.024Z,5.40
2023-05-05T08:12:41.024Z,4.53
2023-05-05T08:15:09.370Z,3.90
2023-05-05T08:17:53.569Z,4.83
2023-05-05T08:20:22.026Z,5.10
2023-05-05T08:22:50.525Z,5.03
2023-05-05T08:25:18.186Z,4.93
2023-05-05T08:27:46.017Z,8.47
2023-05-05T08:30:14.318Z,4.30
2023-05-05T08:32:41.966Z,5.73
2023-05-05T08:35:10.269Z,6.27
2023-05-05T08:37:37.993Z,4.17
2023-05-05T08:40:06.782Z,8.67
2023-05-05T08:42:38.758Z,6.03
2023-05-05T08:45:09.728Z,4.90
2023-05-05T08:47:39.275Z,18.93
2023-05-05T08:50:09.322Z,7.50
2023-05-05T08:52:46.055Z,10.63
2023-05-05T08:55:29.129Z,3.80
2023-05-05T08:57:58.523Z,4.33
2023-05-05T09:00:28.874Z,4.40
2023-05-05T09:03:00.875Z,5.27
2023-05-05T09:05:28.766Z,5.67
2023-05-05T09:07:59.403Z,4.70
2023-05-05T09:10:30.030Z,3.90
2023-05-05T09:12:58.102Z,5.77
2023-05-05T09:15:28.334Z,5.23
2023-05-05T09:17:58.487Z,6.40
2023-05-05T09:20:55.449Z,5.87
2023-05-05T09:23:24.054Z,4.00
2023-05-05T09:26:08.179Z,4.77
2023-05-05T09:28:35.817Z,4.93
2023-05-05T09:31:21.725Z,4.75
2023-05-05T09:33:49.718Z,4.32
2023-05-05T09:36:17.341Z,3.88
2023-05-05T09:39:07.428Z,5.65
2023-05-05T09:41:42.409Z,16.80
2023-05-05T09:44:11.103Z,4.35
2023-05-05T09:46:39.321Z,7.97
2023-05-05T09:49:18.812Z,3.58
2023-05-05T09:51:47.872Z,3.83
2023-05-05T09:54:30.470Z,4.95
2023-05-05T09:56:58.332Z,3.92
2023-05-05T09:59:26.012Z,4.13
2023-05-05T10:01:53.691Z,3.72
2023-05-05T10:04:29.877Z,6.20
2023-05-05T10:06:58.725Z,5.18
2023-05-05T10:09:27.753Z,5.30
2023-05-05T10:11:59.607Z,5.40
2023-05-05T10:14:33.800Z,4.68
2023-05-05T10:17:02.426Z,4.32
2023-05-05T10:19:32.729Z,3.47
2023-05-05T10:22:04.806Z,3.42
2023-05-05T10:24:40.314Z,4.78
2023-05-05T10:27:20.958Z,3.03
2023-05-05T10:30:08.799Z,3.63
2023-05-05T10:32:59.364Z,3.92
2023-05-05T10:35:40.890Z,3.60
2023-05-05T10:38:10.636Z,4.40
2023-05-05T10:40:46.009Z,3.67
2023-05-05T10:43:16.761Z,3.40
2023-05-05T10:45:45.372Z,3.05
2023-05-05T10:48:33.400Z,4.00
2023-05-05T10:51:39.384Z,4.28
2023-05-05T10:54:19.833Z,3.03
2023-05-05T10:56:47.939Z,3.13
2023-05-05T10:59:39.258Z,5.47
2023-05-05T11:02:23.753Z,4.68
2023-05-05T11:05:17.634Z,4.20
2023-05-05T11:07:50.393Z,3.15
2023-05-05T11:10:23.826Z,4.20
2023-05-05T11:13:02.522Z,3.17
2023-05-05T11:15:30.386Z,2.92
2023-05-05T11:18:07.989Z,4.65
2023-05-05T11:20:39.889Z,3.15
2023-05-05T11:23:07.541Z,3.47
2023-05-05T11:25:39.075Z,4.13
2023-05-05T11:28:12.036Z,3.10
2023-05-05T11:31:00.600Z,2.85
2023-05-05T11:33:38.865Z,2.95
2023-05-05T11:36:20.447Z,4.38
2023-05-05T11:38:59.678Z,5.53
2023-05-05T11:41:33.381Z,5.80
2023-05-05T11:44:19.557Z,7.22
2023-05-05T11:46:53.236Z,5.45
2023-05-05T11:49:37.468Z,6.88
2023-05-05T11:52:12.638Z,3.42
2023-05-05T11:54:49.216Z,7.75
2023-05-05T11:57:29.617Z,6.63
2023-05-05T12:00:07.703Z,5.43
2023-05-05T12:02:36.056Z,4.43
2023-05-05T12:05:04.371Z,3.80
2023-05-05T12:07:33.522Z,3.50
2023-05-05T12:10:01.675Z,3.42
2023-05-05T12:12:42.352Z,3.13
2023-05-05T12:15:10.726Z,4.57
2023-05-05T12:17:45.135Z,5.43
2023-05-05T12:20:13.582Z,3.25
2023-05-05T12:22:41.411Z,5.15
2023-05-05T12:25:09.848Z,3.05
2023-05-05T12:27:37.448Z,4.75
2023-05-05T12:30:16.862Z,5.53
2023-05-05T12:32:45.574Z,3.20
2023-05-05T12:35:18.123Z,3.97
2023-05-05T12:37:46.391Z,6.57
2023-05-05T12:40:46.042Z,7.90
2023-05-05T12:43:28.932Z,6.65
2023-05-05T12:46:10.742Z,3.28
2023-05-05T12:48:40.763Z,6.38
2023-05-05T12:51:21.066Z,7.40
2023-05-05T12:54:02.137Z,3.22
2023-05-05T12:56:35.391Z,4.03
2023-05-05T12:59:08.562Z,2.83
2023-05-05T13:02:02.594Z,4.32
2023-05-05T13:04:30.216Z,3.35
2023-05-05T13:07:15.293Z,2.90
2023-05-05T13:09:43.338Z,2.55
2023-05-05T13:12:13.941Z,1.70
2023-05-05T13:14:42.332Z,3.70
2023-05-05T13:17:13.796Z,3.30
2023-05-05T13:19:46.660Z,2.17
2023-05-05T13:22:14.652Z,3.53
2023-05-05T13:24:51.706Z,3.00
2023-05-05T13:27:21.025Z,8.15
2023-05-05T13:29:48.876Z,4.18
2023-05-05T13:32:16.515Z,4.72
2023-05-05T13:34:44.355Z,2.75
2023-05-05T13:37:12.023Z,2.55
2023-05-05T13:39:39.674Z,2.53
2023-05-05T13:42:08.858Z,2.92
2023-05-05T13:44:36.600Z,3.13
2023-05-05T13:47:04.975Z,3.28
2023-05-05T13:49:32.756Z,2.00
2023-05-05T13:52:00.923Z,2.22
2023-05-05T13:54:28.580Z,3.22
2023-05-05T13:56:57.990Z,2.03
2023-05-05T13:59:25.990Z,2.47
2023-05-05T14:01:54.201Z,2.42
2023-05-05T14:04:21.829Z,3.00
2023-05-05T14:06:49.559Z,1.88
2023-05-05T14:09:17.318Z,1.92
2023-05-05T14:11:45.450Z,2.30
2023-05-05T14:14:13.312Z,1.80
2023-05-05T14:16:41.050Z,4.97
2023-05-05T14:19:08.711Z,1.58
2023-05-05T14:21:36.692Z,2.47
2023-05-05T14:24:04.608Z,1.90
2023-05-05T14:26:32.405Z,2.63
2023-05-05T14:29:00.084Z,4.40
2023-05-05T14:31:28.992Z,2.13
2023-05-05T14:33:56.611Z,3.88
2023-05-05T14:36:24.248Z,3.72
2023-05-05T14:38:52.339Z,3.78
2023-05-05T14:41:20.192Z,2.13
2023-05-05T14:43:47.973Z,2.55
2023-05-05T14:46:15.790Z,2.53
2023-05-05T14:48:43.686Z,3.03
2023-05-05T14:51:11.445Z,2.30
2023-05-05T14:53:39.094Z,3.10
2023-05-05T14:56:07.459Z,2.10
2023-05-05T14:58:35.261Z,1.80
2023-05-05T15:01:03.111Z,1.70
2023-05-05T15:03:31.026Z,4.43
2023-05-05T15:05:58.914Z,1.77
2023-05-05T15:08:26.684Z,3.58
2023-05-05T15:10:54.885Z,3.65
2023-05-05T15:13:22.623Z,3.33
2023-05-05T15:15:50.781Z,1.63
2023-05-05T15:18:18.656Z,4.75
2023-05-05T15:20:46.385Z,2.00
2023-05-05T15:23:14.126Z,2.22
2023-05-05T15:25:41.951Z,2.05
2023-05-05T15:28:09.795Z,2.13
2023-05-05T15:30:37.483Z,3.45
2023-05-05T15:33:07.639Z,5.53
2023-05-05T15:35:36.458Z,2.90
2023-05-05T15:38:04.472Z,2.08
2023-05-05T15:40:32.384Z,4.30
2023-05-05T15:43:00.159Z,4.85
2023-05-05T15:45:27.881Z,1.80
2023-05-05T15:47:55.653Z,4.43
2023-05-05T15:50:24.260Z,6.33
2023-05-05T15:52:53.618Z,2.27
2023-05-05T15:55:21.497Z,2.87
2023-05-05T15:57:49.282Z,5.73
2023-05-05T16:00:17.442Z,4.90
2023-05-05T16:02:48.159Z,3.33
2023-05-05T16:05:15.900Z,6.07
2023-05-05T16:07:43.730Z,2.73
2023-05-05T16:10:11.622Z,1.90
2023-05-05T16:12:39.449Z,1.73
2023-05-05T16:15:08.334Z,1.73
2023-05-05T16:17:42.395Z,1.90
2023-05-05T16:20:11.456Z,1.70
2023-05-05T16:22:39.262Z,1.87
2023-05-05T16:25:08.643Z,3.67
2023-05-05T16:27:36.548Z,6.53
2023-05-05T16:30:04.667Z,2.17
2023-05-05T16:32:35.474Z,2.50
2023-05-05T16:35:03.258Z,1.77
2023-05-05T16:37:31.140Z,4.00
2023-05-05T16:39:59.288Z,3.43
2023-05-05T16:42:27.209Z,1.90
2023-05-05T16:44:55.303Z,2.73
2023-05-05T16:47:23.640Z,1.70
2023-05-05T16:49:52.889Z,2.13
2023-05-05T16:52:44.150Z,3.20
2023-05-05T16:57:55.874Z,2.07
2023-05-05T17:00:27.255Z,2.80
2023-05-05T17:02:56.616Z,2.35
2023-05-05T17:05:24.845Z,2.88
2023-05-05T17:07:52.614Z,2.03
2023-05-05T17:10:23.292Z,4.37
2023-05-05T17:12:51.289Z,2.30
2023-05-05T17:15:19.146Z,1.75
2023-05-05T17:17:51.311Z,2.10
2023-05-05T17:20:19.084Z,2.00
2023-05-05T17:22:53.984Z,2.80
2023-05-05T17:25:27.795Z,1.83
2023-05-05T17:27:58.020Z,2.13
2023-05-05T17:30:29.520Z,1.88
2023-05-05T17:32:57.874Z,1.80
2023-05-05T17:35:25.952Z,3.17
2023-05-05T17:37:53.667Z,2.58
2023-05-05T17:40:22.159Z,1.73
2023-05-05T17:42:51.032Z,2.03
2023-05-05T17:45:20.865Z,2.00
2023-05-05T17:47:49.715Z,1.93
2023-05-05T17:50:18.356Z,1.70
2023-05-05T17:52:46.803Z,2.00
2023-05-05T17:55:14.730Z,2.30
2023-05-05T17:57:45.074Z,1.60
2023-05-05T18:00:16.309Z,5.13
2023-05-05T18:02:44.552Z,2.13
2023-05-05T18:05:15.115Z,1.97
2023-05-05T18:07:53.466Z,2.77
2023-05-05T18:10:21.230Z,1.70
2023-05-05T18:12:51.834Z,2.10
2023-05-05T18:15:22.572Z,1.80
2023-05-05T18:17:50.475Z,2.03
2023-05-05T18:20:22.280Z,2.77
2023-05-05T18:22:50.265Z,1.63
2023-05-05T18:25:27.558Z,2.60
2023-05-05T18:27:59.623Z,2.47
2023-05-05T18:30:31.261Z,1.90
2023-05-05T18:33:02.135Z,1.90
2023-05-05T18:35:33.227Z,2.00
2023-05-05T18:38:03.531Z,1.90
2023-05-05T18:40:31.963Z,1.93
2023-05-05T18:43:04.330Z,2.20
2023-05-05T18:45:37.021Z,2.40
2023-05-05T18:48:11.550Z,2.53
2023-05-05T18:50:45.831Z,2.33
2023-05-05T18:53:15.491Z,3.47
2023-05-05T18:55:49.487Z,2.60
2023-05-05T18:58:22.128Z,3.83
2023-05-05T19:00:55.512Z,2.67
2023-05-05T19:03:23.817Z,2.60
2023-05-05T19:05:55.552Z,3.33
2023-05-05T19:08:23.808Z,5.57
2023-05-05T19:10:57.768Z,6.50
2023-05-05T19:13:26.396Z,5.70
2023-05-05T19:15:58.292Z,5.17
2023-05-05T19:18:33.183Z,4.23
2023-05-05T19:21:03.110Z,3.70
2023-05-05T19:23:32.599Z,4.40
2023-05-05T19:26:10.529Z,3.80
2023-05-05T19:28:38.300Z,5.03
2023-05-05T19:31:09.478Z,4.60
2023-05-05T19:33:38.609Z,3.93
2023-05-05T19:36:12.029Z,5.47
2023-05-05T19:38:45.528Z,2.23
2023-05-05T19:41:14.699Z,2.47
2023-05-05T19:43:47.857Z,5.90
2023-05-05T19:46:21.761Z,10.23
2023-05-05T19:48:54.538Z,4.40
2023-05-05T19:51:35.074Z,4.00
2023-05-05T19:54:08.315Z,4.33
2023-05-05T19:56:39.548Z,9.53
2023-05-05T19:59:07.992Z,6.80
2023-05-05T20:01:41.483Z,4.87
2023-05-05T20:04:11.035Z,5.47
2023-05-05T20:06:41.462Z,3.93
2023-05-05T20:09:16.167Z,6.77
2023-05-05T20:11:51.504Z,4.33
2023-05-05T20:14:19.976Z,4.73
2023-05-05T20:16:56.354Z,7.67
2023-05-05T20:19:24.269Z,6.67
2023-05-05T20:21:58.685Z,5.07
2023-05-05T20:24:30.002Z,5.53
2023-05-05T20:26:57.877Z,8.53
2023-05-05T20:29:28.734Z,7.67
2023-05-05T20:31:57.743Z,5.10
2023-05-05T20:34:27.564Z,6.20
2023-05-05T20:36:56.686Z,6.87
2023-05-05T20:39:24.666Z,5.57
2023-05-05T20:41:52.499Z,37.60
2023-05-05T20:44:22.330Z,10.33
2023-05-05T20:46:50.799Z,6.97
2023-05-05T20:49:20.169Z,4.93
2023-05-05T20:51:50.006Z,5.23
2023-05-05T20:54:17.858Z,6.93
2023-05-05T20:56:45.631Z,7.83
2023-05-05T20:59:15.622Z,4.57
2023-05-05T21:01:44.285Z,4.00
2023-05-05T21:04:16.515Z,4.93
2023-05-05T21:06:45.387Z,4.33
2023-05-05T21:09:16.620Z,6.83
2023-05-05T21:11:47.058Z,5.80
2023-05-05T21:14:14.835Z,7.70
2023-05-05T21:19:27.020Z,9.80
2023-05-05T21:21:59.390Z,11.43
2023-05-05T21:24:28.367Z,9.53
2023-05-05T21:26:56.614Z,15.20
2023-05-05T21:29:26.606Z,9.40
2023-05-05T21:31:54.554Z,8.40
2023-05-05T21:34:22.279Z,7.43
2023-05-05T21:36:52.294Z,5.97
2023-05-05T21:39:22.862Z,5.40
2023-05-05T21:41:52.089Z,8.60
2023-05-05T21:44:20.613Z,8.27
2023-05-05T21:46:48.497Z,7.37
2023-05-05T21:49:22.862Z,5.33
2023-05-05T21:51:51.050Z,8.00
2023-05-05T21:54:18.792Z,4.27
2023-05-05T21:56:48.454Z,4.60
2023-05-05T21:59:17.158Z,4.80
2023-05-05T22:01:45.292Z,4.67
2023-05-05T22:04:15.712Z,4.60
2023-05-05T22:06:43.503Z,5.10
2023-05-05T22:09:11.312Z,8.00
2023-05-05T22:11:39.033Z,5.40
2023-05-05T22:14:06.832Z,5.40
2023-05-05T22:16:34.564Z,10.87
2023-05-05T22:19:02.710Z,10.70
2023-05-05T22:21:30.300Z,17.70
2023-05-05T22:23:58.107Z,29.00
2023-05-05T22:26:25.874Z,22.27
2023-05-05T22:28:53.524Z,21.33
2023-05-05T22:31:21.175Z,13.47
2023-05-05T22:33:49.001Z,9.07
2023-05-05T22:36:16.725Z,8.53
2023-05-05T22:38:44.397Z,7.30
2023-05-05T22:41:12.756Z,7.97
2023-05-05T22:43:40.461Z,6.40
2023-05-05T22:46:08.228Z,6.17
2023-05-05T22:48:36.076Z,5.83
2023-05-05T22:51:03.993Z,6.10
2023-05-05T22:53:31.791Z,6.87
2023-05-05T22:55:59.533Z,8.13
2023-05-05T22:58:27.818Z,5.80
2023-05-05T23:00:55.507Z,5.63
2023-05-05T23:03:23.246Z,5.57
2023-05-05T23:05:50.732Z,6.40
2023-05-05T23:08:18.282Z,6.33
2023-05-05T23:10:45.769Z,5.40
2023-05-05T23:13:13.447Z,5.60
2023-05-05T23:15:41.268Z,5.53
2023-05-05T23:18:08.897Z,6.57
2023-05-05T23:20:36.462Z,7.33
2023-05-05T23:23:04.707Z,6.80
2023-05-05T23:25:32.321Z,4.80
2023-05-05T23:27:59.804Z,5.03
2023-05-05T23:30:27.359Z,4.83
2023-05-05T23:32:54.957Z,5.10
2023-05-05T23:35:22.534Z,5.70
2023-05-05T23:37:50.354Z,6.13
2023-05-05T23:40:18.033Z,5.17
2023-05-05T23:42:45.534Z,5.37
2023-05-05T23:45:13.303Z,6.13
2023-05-05T23:47:40.924Z,7.33
2023-05-05T23:50:09.375Z,5.30
2023-05-05T23:52:36.914Z,8.27
2023-05-05T23:55:04.894Z,7.13
2023-05-05T23:57:32.322Z,5.30
2023-05-05T23:59:59.900Z,4.57
